createdAt,value
2023-02-01T00:01:22.061Z,8.20
2023-02-01T00:02:55.142Z,8.00
2023-02-01T00:04:29.589Z,10.87
2023-02-01T00:06:03.242Z,9.30
2023-02-01T00:07:36.386Z,7.70
2023-02-01T00:09:09.847Z,8.53
2023-02-01T00:10:42.941Z,8.40
2023-02-01T00:12:16.001Z,8.10
2023-02-01T00:13:48.288Z,6.40
2023-02-01T00:15:21.739Z,9.17
2023-02-01T00:16:54.882Z,9.00
2023-02-01T00:18:27.931Z,8.17
2023-02-01T00:20:03.071Z,9.87
2023-02-01T00:21:36.171Z,10.73
2023-02-01T00:23:10.622Z,10.27
2023-02-01T00:24:43.792Z,7.50
2023-02-01T00:26:17.856Z,10.07
2023-02-01T00:27:51.631Z,7.57
2023-02-01T00:29:23.828Z,9.13
2023-02-01T00:31:00.280Z,10.33
2023-02-01T00:32:33.871Z,8.57
2023-02-01T00:34:06.143Z,8.77
2023-02-01T00:35:40.625Z,10.03
2023-02-01T00:37:13.703Z,8.17
2023-02-01T00:38:46.244Z,11.47
2023-02-01T00:40:19.852Z,7.60
2023-02-01T00:41:53.332Z,8.10
2023-02-01T00:43:27.486Z,8.57
2023-02-01T00:45:00.572Z,13.10
2023-02-01T00:46:33.731Z,10.17
2023-02-01T00:48:08.080Z,6.53
2023-02-01T00:49:41.146Z,11.30
2023-02-01T00:51:17.549Z,7.50
2023-02-01T00:52:50.589Z,8.00
2023-02-01T00:54:23.767Z,10.73
2023-02-01T00:55:57.244Z,8.50
2023-02-01T00:57:30.409Z,9.00
2023-02-01T00:59:03.473Z,7.37
2023-02-01T01:00:35.728Z,9.80
2023-02-01T01:02:08.879Z,9.70
2023-02-01T01:03:43.173Z,8.67
2023-02-01T01:05:16.261Z,9.00
2023-02-01T01:06:50.735Z,6.17
2023-02-01T01:08:23.851Z,8.20
2023-02-01T01:09:56.918Z,10.77
2023-02-01T01:11:32.429Z,9.73
2023-02-01T01:13:05.561Z,9.83
2023-02-01T01:14:38.634Z,8.63
2023-02-01T01:16:12.127Z,9.93
2023-02-01T01:17:45.265Z,10.07
2023-02-01T01:19:18.424Z,8.70
2023-02-01T01:20:51.496Z,7.50
2023-02-01T01:22:26.079Z,7.87
2023-02-01T01:23:59.364Z,10.20
2023-02-01T01:25:32.674Z,8.67
2023-02-01T01:27:05.765Z,8.03
2023-02-01T01:28:37.891Z,6.27
2023-02-01T01:30:12.368Z,7.63
2023-02-01T01:31:45.559Z,9.60
2023-02-01T01:33:17.716Z,6.77
2023-02-01T01:34:50.860Z,8.30
2023-02-01T01:36:25.538Z,10.70
2023-02-01T01:37:59.668Z,6.97
2023-02-01T01:39:32.802Z,9.03
2023-02-01T01:41:06.670Z,12.63
2023-02-01T01:42:40.458Z,7.87
2023-02-01T01:44:46.862Z,10.67
2023-02-01T01:46:20.400Z,8.17
2023-02-01T01:47:56.440Z,7.90
2023-02-01T01:49:29.628Z,10.80
2023-02-01T01:51:06.463Z,8.60
2023-02-01T01:52:41.191Z,7.93
2023-02-01T01:54:21.936Z,6.80
2023-02-01T01:55:57.553Z,7.37
2023-02-01T01:57:35.336Z,8.37
2023-02-01T01:59:10.054Z,11.07
2023-02-01T02:00:42.668Z,10.23
2023-02-01T02:02:15.884Z,8.30
2023-02-01T02:03:48.733Z,9.33
2023-02-01T02:05:22.398Z,9.47
2023-02-01T02:07:01.247Z,6.00
2023-02-01T02:08:34.306Z,9.40
2023-02-01T02:10:12.639Z,11.43
2023-02-01T02:11:44.800Z,6.80
2023-02-01T02:13:19.334Z,13.57
2023-02-01T02:14:53.217Z,9.40
2023-02-01T02:16:47.050Z,9.47
2023-02-01T02:18:27.727Z,7.83
2023-02-01T02:20:25.464Z,10.13
2023-02-01T02:22:21.364Z,10.13
2023-02-01T02:24:23.608Z,7.03
2023-02-01T02:26:19.003Z,6.27
2023-02-01T02:28:02.049Z,6.83
2023-02-01T02:30:21.575Z,6.83
2023-02-01T02:32:13.751Z,7.17
2023-02-01T02:34:00.979Z,9.17
2023-02-01T02:35:42.408Z,6.40
2023-02-01T02:37:24.957Z,6.40
2023-02-01T02:39:06.753Z,9.33
2023-02-01T02:40:50.242Z,10.23
2023-02-01T02:43:02.266Z,9.37
2023-02-01T02:44:59.943Z,6.83
2023-02-01T02:46:56.185Z,11.60
2023-02-01T02:48:34.173Z,7.97
2023-02-01T02:50:36.859Z,10.23
2023-02-01T02:52:31.642Z,10.63
2023-02-01T02:54:27.203Z,7.57
2023-02-01T02:56:19.822Z,9.37
2023-02-01T02:58:10.778Z,9.13
2023-02-01T03:00:04.678Z,8.90
2023-02-01T03:01:58.231Z,7.70
2023-02-01T03:03:49.093Z,11.63
2023-02-01T03:05:23.635Z,8.83
2023-02-01T03:06:57.497Z,11.20
2023-02-01T03:08:33.322Z,10.77
2023-02-01T03:10:13.088Z,8.10
2023-02-01T03:12:04.588Z,9.87
2023-02-01T03:13:43.699Z,9.17
2023-02-01T03:15:16.692Z,11.13
2023-02-01T03:16:56.950Z,10.17
2023-02-01T03:18:35.366Z,11.27
2023-02-01T03:20:11.851Z,10.03
2023-02-01T03:21:50.759Z,9.93
2023-02-01T03:23:27.440Z,10.83
2023-02-01T03:25:04.705Z,10.00
2023-02-01T03:26:41.925Z,11.03
2023-02-01T03:28:17.317Z,8.80
2023-02-01T03:29:52.165Z,12.57
2023-02-01T03:31:25.935Z,12.77
2023-02-01T03:33:00.219Z,10.33
2023-02-01T03:34:36.765Z,6.90
2023-02-01T03:36:20.591Z,5.20
2023-02-01T03:37:58.641Z,12.73
2023-02-01T03:39:36.555Z,10.03
2023-02-01T03:41:13.365Z,9.00
2023-02-01T03:42:51.996Z,11.83
2023-02-01T03:44:28.927Z,7.43
2023-02-01T03:46:07.031Z,9.47
2023-02-01T03:47:44.122Z,10.93
2023-02-01T03:49:23.985Z,8.10
2023-02-01T03:51:00.853Z,9.47
2023-02-01T03:52:38.626Z,9.57
2023-02-01T03:54:16.891Z,8.97
2023-02-01T03:55:50.376Z,7.27
2023-02-01T03:57:28.772Z,8.23
2023-02-01T03:59:01.078Z,9.37
2023-02-01T04:00:39.666Z,8.93
2023-02-01T04:02:12.996Z,7.97
2023-02-01T04:03:46.334Z,8.00
2023-02-01T04:05:19.590Z,7.93
2023-02-01T04:07:05.919Z,10.10
2023-02-01T04:08:38.214Z,6.93
2023-02-01T04:10:14.368Z,8.73
2023-02-01T04:11:46.418Z,9.27
2023-02-01T04:13:19.500Z,10.07
2023-02-01T04:14:52.812Z,11.30
2023-02-01T04:16:25.876Z,9.43
2023-02-01T04:17:59.002Z,9.13
2023-02-01T04:19:32.085Z,10.87
2023-02-01T04:21:04.820Z,9.87
2023-02-01T04:22:37.936Z,10.00
2023-02-01T04:24:11.558Z,8.57
2023-02-01T04:25:46.489Z,7.47
2023-02-01T04:27:19.700Z,8.63
2023-02-01T04:28:53.696Z,13.40
2023-02-01T04:30:26.862Z,8.90
2023-02-01T04:31:59.922Z,8.63
2023-02-01T04:33:33.030Z,10.83
2023-02-01T04:35:06.343Z,13.47
2023-02-01T04:36:39.390Z,9.70
2023-02-01T04:38:11.487Z,11.90
2023-02-01T04:39:44.642Z,9.07
2023-02-01T04:41:20.157Z,12.00
2023-02-01T04:42:52.307Z,13.00
2023-02-01T04:44:25.609Z,10.93
2023-02-01T04:45:58.686Z,7.67
2023-02-01T04:47:30.775Z,11.93
2023-02-01T04:49:03.873Z,9.20
2023-02-01T04:50:37.757Z,11.50
2023-02-01T04:52:10.924Z,7.83
2023-02-01T04:53:44.244Z,13.77
2023-02-01T04:55:17.775Z,11.10
2023-02-01T04:56:52.258Z,11.43
2023-02-01T04:58:25.435Z,7.97
2023-02-01T04:59:58.520Z,7.40
2023-02-01T05:01:31.907Z,9.90
2023-02-01T05:03:05.170Z,11.43
2023-02-01T05:04:38.217Z,8.70
2023-02-01T05:06:11.363Z,10.63
2023-02-01T05:07:44.643Z,9.93
2023-02-01T05:09:17.816Z,10.30
2023-02-01T05:10:50.938Z,10.43
2023-02-01T05:12:42.732Z,12.27
2023-02-01T05:14:15.009Z,8.30
2023-02-01T05:15:48.147Z,9.60
2023-02-01T05:17:21.259Z,11.20
2023-02-01T05:18:54.351Z,9.63
2023-02-01T05:20:27.908Z,13.63
2023-02-01T05:22:00.956Z,10.17
2023-02-01T05:23:54.244Z,9.73
2023-02-01T05:25:27.327Z,10.53
2023-02-01T05:27:00.573Z,9.30
2023-02-01T05:28:35.003Z,13.50
2023-02-01T05:30:09.144Z,9.33
2023-02-01T05:31:42.343Z,9.63
2023-02-01T05:33:15.502Z,9.87
2023-02-01T05:34:48.558Z,13.83
2023-02-01T05:36:21.879Z,10.67
2023-02-01T05:37:54.933Z,12.50
2023-02-01T05:39:28.061Z,11.17
2023-02-01T05:41:01.086Z,8.97
2023-02-01T05:42:34.195Z,11.27
2023-02-01T05:44:08.886Z,10.93
2023-02-01T05:45:42.025Z,12.77
2023-02-01T05:47:15.134Z,10.67
2023-02-01T05:48:48.271Z,9.60
2023-02-01T05:50:21.652Z,15.50
2023-02-01T05:52:02.999Z,12.30
2023-02-01T05:53:36.046Z,10.03
2023-02-01T05:55:09.653Z,13.13
2023-02-01T05:56:42.866Z,10.53
2023-02-01T05:58:14.975Z,10.30
2023-02-01T05:59:49.715Z,9.77
2023-02-01T06:01:22.817Z,14.13
2023-02-01T06:02:55.952Z,10.13
2023-02-01T06:04:29.260Z,9.97
2023-02-01T06:06:02.483Z,14.53
2023-02-01T06:07:35.784Z,9.63
2023-02-01T06:09:08.849Z,10.77
2023-02-01T06:10:41.060Z,8.87
2023-02-01T06:12:14.826Z,8.97
2023-02-01T06:13:47.887Z,14.67
2023-02-01T06:15:22.468Z,9.93
2023-02-01T06:16:55.945Z,11.43
2023-02-01T06:18:29.019Z,11.57
2023-02-01T06:20:02.175Z,10.90
2023-02-01T06:21:35.241Z,15.17
2023-02-01T06:23:08.342Z,9.23
2023-02-01T06:24:41.884Z,13.97
2023-02-01T06:26:14.968Z,10.67
2023-02-01T06:27:48.049Z,12.87
2023-02-01T06:29:21.144Z,9.20
2023-02-01T06:30:55.883Z,7.77
2023-02-01T06:32:29.653Z,9.57
2023-02-01T06:34:03.954Z,10.13
2023-02-01T06:35:37.010Z,8.80
2023-02-01T06:37:12.029Z,11.37
2023-02-01T06:38:45.146Z,9.90
2023-02-01T06:40:18.393Z,7.77
2023-02-01T06:41:51.919Z,9.13
2023-02-01T06:43:26.463Z,10.27
2023-02-01T06:44:59.552Z,11.57
2023-02-01T06:46:34.223Z,7.37
2023-02-01T06:48:07.638Z,11.23
2023-02-01T06:49:41.403Z,11.57
2023-02-01T06:51:25.370Z,11.53
2023-02-01T06:52:58.441Z,10.13
2023-02-01T06:54:33.258Z,11.27
2023-02-01T06:56:06.977Z,14.83
2023-02-01T06:57:40.025Z,11.77
2023-02-01T06:59:16.046Z,12.43
2023-02-01T07:00:51.387Z,9.70
2023-02-01T07:02:26.110Z,11.50
2023-02-01T07:03:59.542Z,12.23
2023-02-01T07:05:32.639Z,11.27
2023-02-01T07:07:05.879Z,9.10
2023-02-01T07:08:40.008Z,12.93
2023-02-01T07:10:13.270Z,10.00
2023-02-01T07:11:46.415Z,9.33
2023-02-01T07:13:19.760Z,9.20
2023-02-01T07:14:52.826Z,10.60
2023-02-01T07:16:26.244Z,10.60
2023-02-01T07:18:00.865Z,12.23
2023-02-01T07:19:33.940Z,9.33
2023-02-01T07:21:07.376Z,13.83
2023-02-01T07:22:40.417Z,9.53
2023-02-01T07:24:13.488Z,11.57
2023-02-01T07:25:46.561Z,13.40
2023-02-01T07:27:20.916Z,9.57
2023-02-01T07:28:54.234Z,12.37
2023-02-01T07:30:28.384Z,11.47
2023-02-01T07:32:03.345Z,13.77
2023-02-01T07:33:37.844Z,12.20
2023-02-01T07:35:11.106Z,14.07
2023-02-01T07:36:44.205Z,12.80
2023-02-01T07:38:17.299Z,11.73
2023-02-01T07:39:50.380Z,11.10
2023-02-01T07:41:23.575Z,9.83
2023-02-01T07:42:57.141Z,9.07
2023-02-01T07:44:30.508Z,13.23
2023-02-01T07:46:04.660Z,12.07
2023-02-01T07:47:38.039Z,16.33
2023-02-01T07:49:13.901Z,9.07
2023-02-01T07:50:47.032Z,12.83
2023-02-01T07:52:20.158Z,9.40
2023-02-01T07:53:56.046Z,9.73
2023-02-01T07:55:30.208Z,10.90
2023-02-01T07:57:03.285Z,11.73
2023-02-01T07:58:36.426Z,13.10
2023-02-01T08:00:28.473Z,11.83
2023-02-01T08:02:01.621Z,10.87
2023-02-01T08:03:34.753Z,11.20
2023-02-01T08:05:10.189Z,13.10
2023-02-01T08:06:43.319Z,11.27
2023-02-01T08:08:16.395Z,9.13
2023-02-01T08:09:49.497Z,11.67
2023-02-01T08:11:23.830Z,11.67
2023-02-01T08:13:00.878Z,7.27
2023-02-01T08:14:33.991Z,12.33
2023-02-01T08:16:09.342Z,11.53
2023-02-01T08:17:42.455Z,11.63
2023-02-01T08:19:15.568Z,12.50
2023-02-01T08:20:50.009Z,11.20
2023-02-01T08:22:23.171Z,10.40
2023-02-01T08:23:57.277Z,14.10
2023-02-01T08:25:30.499Z,11.13
2023-02-01T08:27:04.219Z,11.23
2023-02-01T08:28:38.030Z,11.80
2023-02-01T08:30:14.387Z,10.37
2023-02-01T08:31:48.000Z,12.83
2023-02-01T08:33:21.077Z,10.33
2023-02-01T08:34:54.380Z,14.90
2023-02-01T08:36:31.865Z,15.77
2023-02-01T08:38:05.388Z,15.30
2023-02-01T08:39:38.442Z,10.67
2023-02-01T08:41:14.976Z,9.30
2023-02-01T08:42:53.100Z,15.27
2023-02-01T08:44:26.280Z,14.60
2023-02-01T08:45:59.382Z,12.77
2023-02-01T08:47:33.242Z,12.30
2023-02-01T08:49:06.344Z,9.03
2023-02-01T08:50:39.506Z,8.80
2023-02-01T08:52:15.976Z,10.90
2023-02-01T08:53:50.327Z,8.50
2023-02-01T08:55:23.438Z,10.03
2023-02-01T08:56:57.440Z,11.63
2023-02-01T08:58:30.599Z,10.93
2023-02-01T09:00:04.604Z,10.70
2023-02-01T09:01:37.718Z,12.57
2023-02-01T09:03:12.792Z,10.17
2023-02-01T09:04:45.849Z,7.50
2023-02-01T09:06:19.558Z,10.40
2023-02-01T09:07:54.036Z,10.63
2023-02-01T09:09:30.476Z,7.73
2023-02-01T09:11:04.727Z,12.63
2023-02-01T09:12:38.724Z,7.93
2023-02-01T09:14:11.993Z,10.20
2023-02-01T09:15:45.109Z,9.67
2023-02-01T09:17:18.238Z,9.23
2023-02-01T09:19:02.026Z,10.07
2023-02-01T09:20:44.511Z,9.70
2023-02-01T09:22:17.828Z,9.33
2023-02-01T09:23:52.833Z,11.87
2023-02-01T09:25:26.179Z,9.80
2023-02-01T09:26:59.436Z,8.73
2023-02-01T09:28:33.002Z,11.83
2023-02-01T09:30:06.949Z,10.27
2023-02-01T09:31:44.140Z,10.70
2023-02-01T09:33:19.828Z,8.17
2023-02-01T09:34:53.478Z,10.37
2023-02-01T09:36:26.568Z,10.60
2023-02-01T09:37:59.667Z,8.83
2023-02-01T09:39:34.215Z,10.83
2023-02-01T09:41:18.411Z,8.43
2023-02-01T09:43:09.394Z,6.60
2023-02-01T09:44:56.731Z,8.17
2023-02-01T09:46:31.904Z,9.63
2023-02-01T09:48:11.700Z,8.50
2023-02-01T09:49:52.356Z,11.47
2023-02-01T09:51:29.658Z,10.93
2023-02-01T09:53:07.707Z,10.57
2023-02-01T09:54:49.153Z,11.07
2023-02-01T09:56:26.759Z,12.83
2023-02-01T09:58:04.009Z,7.43
2023-02-01T09:59:42.711Z,11.77
2023-02-01T10:01:20.064Z,9.87
2023-02-01T10:02:55.067Z,9.13
2023-02-01T10:04:28.684Z,9.87
2023-02-01T10:06:30.221Z,10.63
2023-02-01T10:08:10.989Z,8.53
2023-02-01T10:09:54.802Z,9.10
2023-02-01T10:11:49.310Z,8.17
2023-02-01T10:13:41.745Z,10.43
2023-02-01T10:15:25.413Z,6.63
2023-02-01T10:17:06.612Z,5.80
2023-02-01T10:19:03.349Z,8.63
2023-02-01T10:20:53.272Z,7.50
2023-02-01T10:23:04.976Z,7.67
2023-02-01T10:24:39.816Z,6.13
2023-02-01T10:26:21.154Z,4.63
2023-02-01T10:27:54.655Z,3.80
2023-02-01T10:29:35.103Z,7.67
2023-02-01T10:31:11.375Z,4.37
2023-02-01T10:32:45.079Z,3.37
2023-02-01T10:34:23.048Z,5.07
2023-02-01T10:36:04.149Z,5.10
2023-02-01T10:37:38.037Z,5.50
2023-02-01T10:39:14.588Z,5.30
2023-02-01T10:40:47.964Z,6.97
2023-02-01T10:42:26.245Z,4.37
2023-02-01T10:44:01.159Z,7.33
2023-02-01T10:45:35.792Z,9.30
2023-02-01T10:47:11.383Z,7.57
2023-02-01T10:48:45.073Z,8.53
2023-02-01T10:50:27.248Z,7.50
2023-02-01T10:52:04.618Z,9.63
2023-02-01T10:53:44.323Z,7.10
2023-02-01T10:55:50.461Z,8.83
2023-02-01T10:57:30.652Z,8.73
2023-02-01T10:59:05.976Z,6.67
2023-02-01T11:00:47.624Z,5.87
2023-02-01T11:02:29.150Z,10.40
2023-02-01T11:04:04.215Z,8.67
2023-02-01T11:05:46.963Z,13.93
2023-02-01T11:07:25.568Z,9.33
2023-02-01T11:09:00.237Z,10.30
2023-02-01T11:10:38.770Z,10.40
2023-02-01T11:12:28.860Z,10.37
2023-02-01T11:14:10.893Z,9.13
2023-02-01T11:15:47.464Z,11.50
2023-02-01T11:17:29.892Z,11.87
2023-02-01T11:19:03.238Z,8.93
2023-02-01T11:20:41.757Z,6.37
2023-02-01T11:22:15.891Z,8.60
2023-02-01T11:23:49.216Z,11.63
2023-02-01T11:25:23.439Z,8.13
2023-02-01T11:26:57.753Z,7.53
2023-02-01T11:28:35.077Z,9.83
2023-02-01T11:30:09.574Z,7.43
2023-02-01T11:31:44.066Z,10.93
2023-02-01T11:33:20.662Z,9.93
2023-02-01T11:34:57.679Z,9.10
2023-02-01T11:36:34.507Z,10.97
2023-02-01T11:38:20.187Z,11.57
2023-02-01T11:39:57.969Z,11.97
2023-02-01T11:41:32.031Z,9.33
2023-02-01T11:43:12.047Z,11.80
2023-02-01T11:44:48.339Z,8.07
2023-02-01T11:46:26.170Z,9.63
2023-02-01T11:48:01.358Z,10.43
2023-02-01T11:49:34.862Z,8.97
2023-02-01T11:51:24.641Z,11.13
2023-02-01T11:53:22.230Z,9.90
2023-02-01T11:55:13.125Z,12.23
2023-02-01T11:56:58.314Z,10.50
2023-02-01T11:58:53.175Z,10.30
2023-02-01T12:00:42.322Z,7.63
2023-02-01T12:02:35.632Z,8.90
2023-02-01T12:04:39.364Z,7.60
2023-02-01T12:06:20.121Z,6.07
2023-02-01T12:08:09.747Z,8.77
2023-02-01T12:09:57.737Z,6.97
2023-02-01T12:11:45.828Z,10.30
2023-02-01T12:13:32.195Z,8.60
2023-02-01T12:15:19.342Z,8.90
2023-02-01T12:17:08.470Z,8.00
2023-02-01T12:19:21.334Z,7.80
2023-02-01T12:21:16.603Z,9.63
2023-02-01T12:23:04.022Z,11.00
2023-02-01T12:25:06.159Z,7.20
2023-02-01T12:26:50.083Z,8.10
2023-02-01T12:28:37.214Z,8.90
2023-02-01T12:30:40.517Z,9.90
2023-02-01T12:32:26.016Z,11.07
2023-02-01T12:34:29.761Z,10.07
2023-02-01T12:36:14.817Z,7.83
2023-02-01T12:38:00.054Z,8.60
2023-02-01T12:39:39.704Z,7.23
2023-02-01T12:41:26.840Z,6.73
2023-02-01T12:43:05.176Z,6.13
2023-02-01T12:44:45.967Z,4.93
2023-02-01T12:46:23.429Z,10.00
2023-02-01T12:48:04.528Z,7.00
2023-02-01T12:49:48.142Z,9.00
2023-02-01T12:51:24.593Z,9.33
2023-02-01T12:53:08.861Z,5.53
2023-02-01T12:54:48.956Z,7.60
2023-02-01T12:56:27.354Z,6.13
2023-02-01T12:58:08.995Z,10.57
2023-02-01T12:59:47.501Z,7.20
2023-02-01T13:01:24.416Z,8.43
2023-02-01T13:03:05.401Z,6.47
2023-02-01T13:04:44.439Z,8.93
2023-02-01T13:06:21.559Z,7.00
2023-02-01T13:07:59.953Z,8.03
2023-02-01T13:09:41.316Z,10.50
2023-02-01T13:11:19.094Z,7.40
2023-02-01T13:12:56.593Z,11.20
2023-02-01T13:14:35.886Z,7.60
2023-02-01T13:16:18.880Z,10.03
2023-02-01T13:17:54.884Z,9.20
2023-02-01T13:19:35.492Z,9.67
2023-02-01T13:21:12.526Z,9.97
2023-02-01T13:22:48.797Z,9.73
2023-02-01T13:24:33.607Z,9.80
2023-02-01T13:26:07.077Z,9.50
2023-02-01T13:27:40.905Z,8.57
2023-02-01T13:29:17.330Z,7.57
2023-02-01T13:31:16.395Z,10.97
2023-02-01T13:33:52.531Z,10.70
2023-02-01T13:35:41.280Z,6.70
2023-02-01T13:37:30.586Z,11.70
2023-02-01T13:39:26.257Z,8.23
2023-02-01T13:41:17.971Z,6.03
2023-02-01T13:42:54.207Z,6.63
2023-02-01T13:44:33.080Z,9.50
2023-02-01T13:46:14.462Z,8.17
2023-02-01T13:47:53.767Z,8.50
2023-02-01T13:49:29.800Z,8.23
2023-02-01T13:51:03.711Z,10.30
2023-02-01T13:52:44.512Z,10.63
2023-02-01T13:54:30.740Z,8.73
2023-02-01T13:56:07.469Z,8.13
2023-02-01T13:57:42.681Z,9.17
2023-02-01T13:59:39.099Z,7.27
2023-02-01T14:01:37.201Z,7.33
2023-02-01T14:03:21.599Z,7.47
2023-02-01T14:04:54.675Z,10.67
2023-02-01T14:06:48.845Z,6.60
2023-02-01T14:08:42.593Z,8.40
2023-02-01T14:10:56.749Z,10.30
2023-02-01T14:12:51.012Z,7.27
2023-02-01T14:14:45.758Z,6.47
2023-02-01T14:16:19.548Z,6.83
2023-02-01T14:17:53.221Z,5.37
2023-02-01T14:19:28.208Z,5.43
2023-02-01T14:21:24.205Z,12.47
2023-02-01T14:23:04.043Z,9.33
2023-02-01T14:24:39.233Z,5.53
2023-02-01T14:26:19.341Z,7.97
2023-02-01T14:27:55.390Z,7.07
2023-02-01T14:29:33.346Z,6.93
2023-02-01T14:31:18.702Z,8.60
2023-02-01T14:32:52.754Z,4.37
2023-02-01T14:34:44.070Z,8.13
2023-02-01T14:36:18.393Z,5.33
2023-02-01T14:37:54.906Z,7.17
2023-02-01T14:39:43.088Z,6.87
2023-02-01T14:41:30.763Z,7.47
2023-02-01T14:43:03.858Z,7.23
2023-02-01T14:44:38.864Z,5.90
2023-02-01T14:46:12.039Z,7.53
2023-02-01T14:47:47.531Z,12.07
2023-02-01T14:49:21.327Z,7.23
2023-02-01T14:50:55.435Z,7.60
2023-02-01T14:52:35.472Z,7.53
2023-02-01T14:54:14.490Z,6.97
2023-02-01T14:55:51.361Z,5.97
2023-02-01T14:57:28.966Z,8.13
2023-02-01T14:59:10.756Z,8.97
2023-02-01T15:00:49.863Z,10.47
2023-02-01T15:02:28.038Z,8.37
2023-02-01T15:04:06.175Z,8.50
2023-02-01T15:05:39.225Z,6.87
2023-02-01T15:07:15.606Z,6.53
2023-02-01T15:08:48.831Z,7.13
2023-02-01T15:10:23.264Z,6.83
2023-02-01T15:12:00.036Z,7.53
2023-02-01T15:13:33.087Z,7.77
2023-02-01T15:15:15.004Z,7.93
2023-02-01T15:16:54.540Z,8.10
2023-02-01T15:18:27.747Z,6.53
2023-02-01T15:20:04.844Z,6.60
2023-02-01T15:21:47.967Z,6.50
2023-02-01T15:23:21.032Z,7.93
2023-02-01T15:24:55.534Z,7.33
2023-02-01T15:26:30.212Z,9.10
2023-02-01T15:28:07.011Z,8.10
2023-02-01T15:29:40.260Z,6.27
2023-02-01T15:31:14.334Z,7.57
2023-02-01T15:32:48.476Z,7.53
2023-02-01T15:34:22.603Z,9.23
2023-02-01T15:35:57.483Z,6.33
2023-02-01T15:37:31.464Z,7.17
2023-02-01T15:39:21.044Z,7.33
2023-02-01T15:40:58.572Z,7.47
2023-02-01T15:42:31.934Z,10.87
2023-02-01T15:44:22.383Z,8.47
2023-02-01T15:45:58.967Z,6.80
2023-02-01T15:47:33.810Z,9.77
2023-02-01T15:49:18.130Z,10.37
2023-02-01T15:50:52.045Z,6.40
2023-02-01T15:52:28.845Z,8.30
2023-02-01T15:54:04.155Z,10.43
2023-02-01T15:55:42.322Z,13.20
2023-02-01T15:57:22.643Z,5.97
2023-02-01T15:58:58.623Z,6.03
2023-02-01T16:00:42.393Z,7.40
2023-02-01T16:02:30.066Z,4.17
2023-02-01T16:04:12.562Z,7.83
2023-02-01T16:05:45.755Z,8.50
2023-02-01T16:07:27.963Z,8.03
2023-02-01T16:09:05.865Z,9.37
2023-02-01T16:10:42.635Z,6.17
2023-02-01T16:12:31.588Z,7.03
2023-02-01T16:14:04.831Z,8.17
2023-02-01T16:15:39.643Z,7.83
2023-02-01T16:17:12.693Z,9.43
2023-02-01T16:18:45.986Z,9.03
2023-02-01T16:20:19.660Z,10.00
2023-02-01T16:21:52.713Z,10.13
2023-02-01T16:23:25.798Z,7.63
2023-02-01T16:24:59.051Z,8.17
2023-02-01T16:26:33.240Z,8.97
2023-02-01T16:28:06.775Z,9.10
2023-02-01T16:29:42.015Z,10.13
2023-02-01T16:31:20.408Z,10.17
2023-02-01T16:32:55.910Z,8.13
2023-02-01T16:34:29.090Z,7.87
2023-02-01T16:36:03.190Z,10.93
2023-02-01T16:37:37.533Z,9.13
2023-02-01T16:39:11.489Z,8.93
2023-02-01T16:40:45.539Z,8.37
2023-02-01T16:42:19.005Z,9.97
2023-02-01T16:43:53.440Z,11.33
2023-02-01T16:45:26.793Z,7.80
2023-02-01T16:47:01.416Z,9.17
2023-02-01T16:48:38.042Z,10.03
2023-02-01T16:50:23.611Z,10.10
2023-02-01T16:51:59.853Z,12.80
2023-02-01T16:53:41.728Z,8.80
2023-02-01T16:55:23.928Z,7.83
2023-02-01T16:56:57.251Z,10.77
2023-02-01T16:58:30.449Z,12.77
2023-02-01T17:00:17.953Z,13.23
2023-02-01T17:01:55.701Z,8.30
2023-02-01T17:03:30.187Z,13.83
2023-02-01T17:05:03.353Z,11.07
2023-02-01T17:06:38.739Z,10.57
2023-02-01T17:08:14.952Z,12.03
2023-02-01T17:09:48.352Z,11.87
2023-02-01T17:11:21.701Z,11.60
2023-02-01T17:12:54.744Z,12.93
2023-02-01T17:14:27.849Z,18.10
2023-02-01T17:16:04.570Z,15.27
2023-02-01T17:17:39.998Z,11.93
2023-02-01T17:19:18.193Z,10.57
2023-02-01T17:20:53.002Z,12.03
2023-02-01T17:22:26.208Z,7.60
2023-02-01T17:24:01.207Z,9.80
2023-02-01T17:25:34.388Z,6.33
2023-02-01T17:27:08.263Z,3.70
2023-02-01T17:28:41.386Z,3.85
2023-02-01T17:30:15.514Z,4.23
2023-02-01T17:31:51.429Z,3.13
2023-02-01T17:33:27.636Z,4.03
2023-02-01T17:35:02.146Z,3.50
2023-02-01T17:36:36.487Z,3.80
2023-02-01T17:38:13.511Z,1.70
2023-02-01T17:39:58.398Z,2.27
2023-02-01T17:41:31.635Z,2.30
2023-02-01T17:43:04.988Z,1.77
2023-02-01T17:44:38.112Z,2.77
2023-02-01T17:46:16.057Z,3.87
2023-02-01T17:47:49.156Z,2.07
2023-02-01T17:49:22.285Z,2.13
2023-02-01T17:50:58.836Z,3.07
2023-02-01T17:52:31.958Z,2.30
2023-02-01T17:54:05.166Z,2.00
2023-02-01T17:55:41.463Z,3.47
2023-02-01T17:57:15.113Z,2.13
2023-02-01T17:58:48.661Z,2.27
2023-02-01T18:00:22.591Z,2.60
2023-02-01T18:02:00.758Z,2.53
2023-02-01T18:03:35.618Z,4.27
2023-02-01T18:05:17.707Z,3.13
2023-02-01T18:06:52.187Z,3.23
2023-02-01T18:08:26.926Z,4.47
2023-02-01T18:10:00.009Z,2.40
2023-02-01T18:11:33.607Z,2.73
2023-02-01T18:13:06.839Z,4.13
2023-02-01T18:14:39.899Z,3.70
2023-02-01T18:16:20.853Z,1.77
2023-02-01T18:17:53.951Z,4.03
2023-02-01T18:19:27.648Z,2.80
2023-02-01T18:21:01.172Z,3.17
2023-02-01T18:22:35.940Z,3.20
2023-02-01T18:24:10.670Z,3.23
2023-02-01T18:25:43.781Z,6.27
2023-02-01T18:27:16.872Z,4.50
2023-02-01T18:28:49.943Z,4.60
2023-02-01T18:30:25.142Z,4.60
2023-02-01T18:31:58.399Z,5.77
2023-02-01T18:33:32.358Z,3.17
2023-02-01T18:35:17.257Z,3.63
2023-02-01T18:36:50.469Z,3.87
2023-02-01T18:38:25.047Z,8.10
2023-02-01T18:39:58.120Z,4.27
2023-02-01T18:41:31.239Z,4.37
2023-02-01T18:43:04.889Z,5.20
2023-02-01T18:44:39.336Z,4.77
2023-02-01T18:46:13.019Z,4.67
2023-02-01T18:47:45.350Z,5.17
2023-02-01T18:49:19.807Z,7.83
2023-02-01T18:50:57.261Z,6.20
2023-02-01T18:52:29.403Z,4.23
2023-02-01T18:54:03.888Z,8.47
2023-02-01T18:55:36.938Z,6.97
2023-02-01T18:57:11.104Z,8.07
2023-02-01T18:58:44.211Z,5.80
2023-02-01T19:00:18.143Z,4.07
2023-02-01T19:01:51.460Z,8.27
2023-02-01T19:03:26.665Z,5.40
2023-02-01T19:04:59.956Z,4.93
2023-02-01T19:06:33.097Z,4.80
2023-02-01T19:08:06.620Z,4.53
2023-02-01T19:09:41.076Z,5.13
2023-02-01T19:11:14.374Z,7.07
2023-02-01T19:12:47.555Z,6.37
2023-02-01T19:14:21.345Z,4.70
2023-02-01T19:15:54.738Z,4.83
2023-02-01T19:17:28.965Z,5.57
2023-02-01T19:19:02.078Z,6.40
2023-02-01T19:20:35.227Z,5.63
2023-02-01T19:22:08.302Z,5.93
2023-02-01T19:23:41.897Z,4.67
2023-02-01T19:25:19.803Z,6.47
2023-02-01T19:26:53.057Z,4.23
2023-02-01T19:28:26.357Z,3.93
2023-02-01T19:29:59.473Z,4.00
2023-02-01T19:31:32.632Z,6.03
2023-02-01T19:33:05.831Z,2.63
2023-02-01T19:34:39.995Z,4.47
2023-02-01T19:36:13.139Z,4.67
2023-02-01T19:37:46.921Z,4.90
2023-02-01T19:39:21.450Z,1.80
2023-02-01T19:40:56.492Z,3.37
2023-02-01T19:42:30.472Z,3.13
2023-02-01T19:44:04.361Z,5.10
2023-02-01T19:45:37.478Z,5.70
2023-02-01T19:47:10.686Z,3.70
2023-02-01T19:48:43.813Z,4.80
2023-02-01T19:50:19.395Z,2.97
2023-02-01T19:51:52.461Z,2.90
2023-02-01T19:53:27.652Z,2.97
2023-02-01T19:55:01.508Z,3.23
2023-02-01T19:56:36.026Z,3.73
2023-02-01T19:58:09.127Z,4.83
2023-02-01T19:59:42.327Z,3.53
2023-02-01T20:01:15.360Z,4.33
2023-02-01T20:02:48.545Z,3.97
2023-02-01T20:04:22.478Z,4.67
2023-02-01T20:05:57.293Z,4.13
2023-02-01T20:07:30.346Z,5.70
2023-02-01T20:09:03.752Z,4.80
2023-02-01T20:10:36.925Z,5.33
2023-02-01T20:12:11.862Z,5.90
2023-02-01T20:13:44.939Z,4.83
2023-02-01T20:15:18.207Z,5.60
2023-02-01T20:16:51.551Z,5.87
2023-02-01T20:18:24.639Z,7.07
2023-02-01T20:19:57.738Z,5.10
2023-02-01T20:21:30.823Z,5.43
2023-02-01T20:23:03.941Z,4.43
2023-02-01T20:24:38.683Z,4.80
2023-02-01T20:26:13.163Z,4.13
2023-02-01T20:27:47.588Z,5.30
2023-02-01T20:29:20.949Z,9.03
2023-02-01T20:30:54.155Z,5.03
2023-02-01T20:32:27.243Z,4.07
2023-02-01T20:34:01.619Z,4.37
2023-02-01T20:35:34.723Z,4.23
2023-02-01T20:37:07.858Z,7.57
2023-02-01T20:38:40.905Z,3.57
2023-02-01T20:40:14.649Z,4.70
2023-02-01T20:41:47.728Z,5.67
2023-02-01T20:43:22.219Z,6.97
2023-02-01T20:44:55.261Z,5.33
2023-02-01T20:46:28.486Z,5.37
2023-02-01T20:48:01.586Z,5.50
2023-02-01T20:49:35.670Z,6.47
2023-02-01T20:51:10.402Z,4.67
2023-02-01T20:52:43.461Z,5.70
2023-02-01T20:54:16.559Z,5.80
2023-02-01T20:55:52.462Z,5.53
2023-02-01T20:57:26.290Z,7.93
2023-02-01T20:59:03.996Z,4.93
2023-02-01T21:00:37.125Z,4.70
2023-02-01T21:02:11.837Z,5.73
2023-02-01T21:03:44.984Z,5.83
2023-02-01T21:05:18.584Z,3.57
2023-02-01T21:06:51.646Z,5.73
2023-02-01T21:08:25.474Z,5.17
2023-02-01T21:09:58.607Z,8.67
2023-02-01T21:11:31.697Z,3.77
2023-02-01T21:13:05.593Z,6.70
2023-02-01T21:14:40.093Z,5.23
2023-02-01T21:16:15.361Z,3.30
2023-02-01T21:17:48.524Z,3.47
2023-02-01T21:19:22.395Z,7.67